Terminal Aerodrome Forecast
Issued by NWS Sterling, VA

Home | Current Version | Previous Version | Text Only | Print | Product List | Glossary On
Versions: 1 2 3 4 5 6 7 8 9 10 11 12 13 14 15 16 17 18 19 20 21 22
000
FTUS41 KLWX 252102 AAA
TAFIAD
TAF AMD
KIAD 252102Z 2521/2624 19005KT P6SM BKN050
     FM260200 VRB03KT P6SM SCT035 BKN250
     FM261500 17007KT P6SM SCT035 BKN045=

USA.gov is the U.S. government's official web portal to all federal, state and local government web resources and services.